createdAt,value
2022-09-12T00:01:16.498Z,15.87
2022-09-12T00:03:43.896Z,15.74
2022-09-12T00:06:22.641Z,15.75
2022-09-12T00:08:51.519Z,15.63
2022-09-12T00:11:18.803Z,15.49
2022-09-12T00:13:45.798Z,15.49
2022-09-12T00:16:19.918Z,15.38
2022-09-12T00:18:47.323Z,15.48
2022-09-12T00:21:15.728Z,15.61
2022-09-12T00:23:42.922Z,15.68
2022-09-12T00:26:09.876Z,15.56
2022-09-12T00:28:38.804Z,15.46
2022-09-12T00:31:11.501Z,15.52
2022-09-12T00:33:38.958Z,15.31
2022-09-12T00:36:18.735Z,15.40
2022-09-12T00:38:46.872Z,15.36
2022-09-12T00:41:37.020Z,15.26
2022-09-12T00:44:23.968Z,15.21
2022-09-12T00:47:10.691Z,15.25
2022-09-12T00:49:54.549Z,15.05
2022-09-12T00:52:49.439Z,15.17
2022-09-12T00:55:21.816Z,15.09
2022-09-12T00:58:12.745Z,15.11
2022-09-12T01:00:39.584Z,15.05
2022-09-12T01:03:15.792Z,15.12
2022-09-12T01:06:18.636Z,15.18
2022-09-12T01:08:48.213Z,15.14
2022-09-12T01:11:16.370Z,15.14
2022-09-12T01:13:45.483Z,15.02
2022-09-12T01:16:12.783Z,14.91
2022-09-12T01:19:25.941Z,14.96
2022-09-12T01:22:56.358Z,14.88
2022-09-12T01:25:57.146Z,14.92
2022-09-12T01:29:00.764Z,14.85
2022-09-12T01:32:05.292Z,14.91
2022-09-12T01:34:46.113Z,14.82
2022-09-12T01:37:55.336Z,14.81
2022-09-12T01:40:36.539Z,14.93
2022-09-12T01:43:21.412Z,14.89
2022-09-12T01:46:44.084Z,14.70
2022-09-12T01:49:23.843Z,14.85
2022-09-12T01:51:53.574Z,14.91
2022-09-12T01:54:40.354Z,14.88
2022-09-12T01:57:16.996Z,14.81
2022-09-12T01:59:53.204Z,14.92
2022-09-12T02:02:36.790Z,14.71
2022-09-12T02:05:15.002Z,14.77
2022-09-12T02:07:49.713Z,14.74
2022-09-12T02:10:22.128Z,14.71
2022-09-12T02:13:09.266Z,14.70
2022-09-12T02:16:06.267Z,14.63
2022-09-12T02:18:38.341Z,14.46
2022-09-12T02:21:06.603Z,14.59
2022-09-12T02:23:38.088Z,14.64
2022-09-12T02:26:33.588Z,14.48
2022-09-12T02:29:00.495Z,14.38
2022-09-12T02:31:33.667Z,14.47
2022-09-12T02:34:27.901Z,14.42
2022-09-12T02:37:27.259Z,14.38
2022-09-12T02:39:56.854Z,14.43
2022-09-12T02:42:24.569Z,14.45
2022-09-12T02:44:54.765Z,14.42
2022-09-12T02:47:31.685Z,14.43
2022-09-12T02:50:00.207Z,14.47
2022-09-12T02:52:28.905Z,14.46
2022-09-12T02:54:57.396Z,14.34
2022-09-12T02:57:24.900Z,14.41
2022-09-12T02:59:57.318Z,14.36
2022-09-12T03:03:10.730Z,14.37
2022-09-12T03:06:01.271Z,14.27
2022-09-12T03:08:56.762Z,14.23
2022-09-12T03:11:43.626Z,14.11
2022-09-12T03:14:47.229Z,14.24
2022-09-12T03:17:41.243Z,14.26
2022-09-12T03:20:20.025Z,14.17
2022-09-12T03:22:57.719Z,14.18
2022-09-12T03:25:31.797Z,14.05
2022-09-12T03:28:09.310Z,14.10
2022-09-12T03:30:44.595Z,14.13
2022-09-12T03:33:14.269Z,14.09
2022-09-12T03:35:41.706Z,14.12
2022-09-12T03:38:08.868Z,14.00
2022-09-12T03:40:37.241Z,13.97
2022-09-12T03:43:05.684Z,13.88
2022-09-12T03:45:32.651Z,14.02
2022-09-12T03:48:00.050Z,13.64
2022-09-12T03:50:27.527Z,13.90
2022-09-12T03:52:54.416Z,14.00
2022-09-12T03:55:21.195Z,13.92
2022-09-12T03:57:47.972Z,13.76
2022-09-12T04:00:19.588Z,13.85
2022-09-12T04:02:46.930Z,13.82
2022-09-12T04:05:13.888Z,13.96
2022-09-12T04:07:40.796Z,13.85
2022-09-12T04:10:09.498Z,13.84
2022-09-12T04:12:36.647Z,13.95
2022-09-12T04:15:03.750Z,13.75
2022-09-12T04:17:30.528Z,13.86
2022-09-12T04:19:57.324Z,13.88
2022-09-12T04:22:24.269Z,13.82
2022-09-12T04:24:51.070Z,13.87
2022-09-12T04:27:18.091Z,13.72
2022-09-12T04:29:44.857Z,13.85
2022-09-12T04:32:11.699Z,13.84
2022-09-12T04:34:39.095Z,13.70
2022-09-12T04:37:05.976Z,13.80
2022-09-12T04:39:32.756Z,13.63
2022-09-12T04:41:59.527Z,13.66
2022-09-12T04:44:26.330Z,13.60
2022-09-12T04:46:53.170Z,13.67
2022-09-12T04:49:19.952Z,13.62
2022-09-12T04:51:47.400Z,13.62
2022-09-12T04:54:17.928Z,13.67
2022-09-12T04:56:48.759Z,13.63
2022-09-12T04:59:17.901Z,13.64
2022-09-12T05:01:45.057Z,13.65
2022-09-12T05:04:13.164Z,13.56
2022-09-12T05:06:41.550Z,13.67
2022-09-12T05:09:11.575Z,13.52
2022-09-12T05:12:03.158Z,13.53
2022-09-12T05:14:27.554Z,13.66
2022-09-12T05:16:56.322Z,13.57
2022-09-12T05:19:23.516Z,13.61
2022-09-12T05:21:50.365Z,13.51
2022-09-12T05:24:17.373Z,13.59
2022-09-12T05:26:44.178Z,13.54
2022-09-12T05:29:11.454Z,13.75
2022-09-12T05:31:39.089Z,13.65
2022-09-12T05:34:07.016Z,13.63
2022-09-12T05:36:34.070Z,13.63
2022-09-12T05:39:01.279Z,13.78
2022-09-12T05:41:31.289Z,13.76
2022-09-12T05:44:00.919Z,13.67
2022-09-12T05:46:31.173Z,13.62
2022-09-12T05:49:03.339Z,13.72
2022-09-12T05:51:34.536Z,13.59
2022-09-12T05:54:06.188Z,13.35
2022-09-12T05:56:38.900Z,13.44
2022-09-12T05:59:13.185Z,13.54
2022-09-12T06:01:40.823Z,13.65
2022-09-12T06:04:07.972Z,13.61
2022-09-12T06:06:45.959Z,13.50
2022-09-12T06:09:15.880Z,13.47
2022-09-12T06:11:45.619Z,13.35
2022-09-12T06:14:15.222Z,13.53
2022-09-12T06:16:42.702Z,13.41
2022-09-12T06:19:27.531Z,13.51
2022-09-12T06:21:54.608Z,13.64
2022-09-12T06:24:21.923Z,13.51
2022-09-12T06:26:52.505Z,13.63
2022-09-12T06:29:19.454Z,13.67
2022-09-12T06:31:46.583Z,13.59
2022-09-12T06:34:15.916Z,13.77
2022-09-12T06:36:48.609Z,13.70
2022-09-12T06:39:18.727Z,13.83
2022-09-12T06:41:46.061Z,13.64
2022-09-12T06:44:22.888Z,13.85
2022-09-12T06:46:50.185Z,14.01
2022-09-12T06:49:17.744Z,13.96
2022-09-12T06:51:44.820Z,13.88
2022-09-12T06:54:16.746Z,14.06
2022-09-12T06:56:44.060Z,13.91
2022-09-12T06:59:10.976Z,13.90
2022-09-12T07:01:38.148Z,13.98
2022-09-12T07:04:05.393Z,13.89
2022-09-12T07:06:41.372Z,13.87
2022-09-12T07:09:13.162Z,14.09
2022-09-12T07:11:42.183Z,14.02
2022-09-12T07:14:13.969Z,14.18
2022-09-12T07:16:41.263Z,14.17
2022-09-12T07:19:08.891Z,14.27
2022-09-12T07:21:39.828Z,14.21
2022-09-12T07:24:09.502Z,14.33
2022-09-12T07:26:36.547Z,14.30
2022-09-12T07:29:32.318Z,14.50
2022-09-12T07:31:50.440Z,14.56
2022-09-12T07:34:17.589Z,14.49
2022-09-12T07:36:44.478Z,14.55
2022-09-12T07:39:11.299Z,14.51
2022-09-12T07:41:38.234Z,14.49
2022-09-12T07:44:06.955Z,14.64
2022-09-12T07:46:35.164Z,14.59
2022-09-12T07:49:02.905Z,14.58
2022-09-12T07:51:31.245Z,14.64
2022-09-12T07:53:58.917Z,14.60
2022-09-12T07:56:31.149Z,14.75
2022-09-12T07:58:58.934Z,14.60
2022-09-12T08:01:26.455Z,14.55
2022-09-12T08:03:58.859Z,14.71
2022-09-12T08:06:28.187Z,14.78
2022-09-12T08:08:57.926Z,14.92
2022-09-12T08:11:28.134Z,14.81
2022-09-12T08:13:57.571Z,14.94
2022-09-12T08:16:29.583Z,15.11
2022-09-12T08:18:56.972Z,15.13
2022-09-12T08:21:27.274Z,15.24
2022-09-12T08:24:00.751Z,15.23
2022-09-12T08:26:28.237Z,15.38
2022-09-12T08:28:55.362Z,15.39
2022-09-12T08:31:25.193Z,15.54
2022-09-12T08:33:54.844Z,15.52
2022-09-12T08:36:25.234Z,15.57
2022-09-12T08:38:59.583Z,15.75
2022-09-12T08:41:41.090Z,15.80
2022-09-12T08:44:43.819Z,15.89
2022-09-12T08:47:13.496Z,16.12
2022-09-12T08:50:04.334Z,16.21
2022-09-12T08:52:59.246Z,16.21
2022-09-12T08:55:37.863Z,16.29
2022-09-12T08:58:24.584Z,16.34
2022-09-12T09:01:12.339Z,16.36
2022-09-12T09:03:53.084Z,16.43
2022-09-12T09:07:20.602Z,16.51
2022-09-12T09:10:27.868Z,16.59
2022-09-12T09:13:46.794Z,16.62
2022-09-12T09:16:35.019Z,16.75
2022-09-12T09:19:09.533Z,16.92
2022-09-12T09:21:56.203Z,16.98
2022-09-12T09:24:33.899Z,17.32
2022-09-12T09:27:36.833Z,17.30
2022-09-12T09:30:00.574Z,17.28
2022-09-12T09:32:35.063Z,17.42
2022-09-12T09:35:22.484Z,17.45
2022-09-12T09:38:11.086Z,17.53
2022-09-12T09:40:55.106Z,18.00
2022-09-12T09:43:25.399Z,18.17
2022-09-12T09:45:53.301Z,18.17
2022-09-12T09:48:26.833Z,18.37
2022-09-12T09:50:54.054Z,18.40
2022-09-12T09:53:46.301Z,18.58
2022-09-12T09:56:34.225Z,18.65
2022-09-12T09:59:26.872Z,18.63
2022-09-12T10:02:03.590Z,18.69
2022-09-12T10:04:40.683Z,18.86
2022-09-12T10:07:19.826Z,19.13
2022-09-12T10:10:14.455Z,19.33
2022-09-12T10:12:41.710Z,19.43
2022-09-12T10:15:26.507Z,19.30
2022-09-12T10:17:55.709Z,19.38
2022-09-12T10:20:38.530Z,19.21
2022-09-12T10:23:37.804Z,19.44
2022-09-12T10:26:16.493Z,19.45
2022-09-12T10:28:56.171Z,19.45
2022-09-12T10:31:41.430Z,19.47
2022-09-12T10:34:24.427Z,19.61
2022-09-12T10:36:55.642Z,19.54
2022-09-12T10:39:22.946Z,19.67
2022-09-12T10:41:49.768Z,19.64
2022-09-12T10:44:29.518Z,19.75
2022-09-12T10:46:57.812Z,19.90
2022-09-12T10:49:38.175Z,20.13
2022-09-12T10:52:24.990Z,20.20
2022-09-12T10:54:52.564Z,20.31
2022-09-12T10:57:51.109Z,20.28
2022-09-12T11:00:20.466Z,20.66
2022-09-12T11:03:20.790Z,20.76
2022-09-12T11:06:00.478Z,21.01
2022-09-12T11:08:49.096Z,21.20
2022-09-12T11:12:09.765Z,21.01
2022-09-12T11:14:58.072Z,21.18
2022-09-12T11:17:58.639Z,21.14
2022-09-12T11:21:11.788Z,21.06
2022-09-12T11:23:51.061Z,21.05
2022-09-12T11:27:01.043Z,21.07
2022-09-12T11:29:54.689Z,21.25
2022-09-12T11:32:49.918Z,21.17
2022-09-12T11:35:27.554Z,21.33
2022-09-12T11:38:21.490Z,21.63
2022-09-12T11:41:07.785Z,21.42
2022-09-12T11:43:40.576Z,21.49
2022-09-12T11:46:18.222Z,21.45
2022-09-12T11:49:03.574Z,21.73
2022-09-12T11:51:57.605Z,21.93
2022-09-12T11:54:44.834Z,21.92
2022-09-12T11:57:41.846Z,21.88
2022-09-12T12:00:35.179Z,22.03
2022-09-12T12:03:35.346Z,22.54
2022-09-12T12:06:29.062Z,22.95
2022-09-12T12:08:56.109Z,22.58
2022-09-12T12:11:44.754Z,22.55
2022-09-12T12:14:15.882Z,22.63
2022-09-12T12:16:43.398Z,22.84
2022-09-12T12:19:16.021Z,23.03
2022-09-12T12:21:46.154Z,22.80
2022-09-12T12:24:22.709Z,22.68
2022-09-12T12:27:04.851Z,22.76
2022-09-12T12:29:31.623Z,22.96
2022-09-12T12:32:04.111Z,22.88
2022-09-12T12:34:33.255Z,22.71
2022-09-12T12:37:20.164Z,22.64
2022-09-12T12:39:48.039Z,22.58
2022-09-12T12:42:35.964Z,22.56
2022-09-12T12:45:08.821Z,22.57
2022-09-12T12:47:38.490Z,22.67
2022-09-12T12:50:23.836Z,22.64
2022-09-12T12:53:16.982Z,22.95
2022-09-12T12:55:43.801Z,23.21
2022-09-12T12:58:34.598Z,23.17
2022-09-12T13:01:18.651Z,23.15
2022-09-12T13:03:54.870Z,23.04
2022-09-12T13:06:43.749Z,23.28
2022-09-12T13:09:32.484Z,23.17
2022-09-12T13:12:09.267Z,23.16
2022-09-12T13:14:59.314Z,23.07
2022-09-12T13:17:44.234Z,22.98
2022-09-12T13:20:27.982Z,23.26
2022-09-12T13:22:56.754Z,23.31
2022-09-12T13:25:31.158Z,23.18
2022-09-12T13:28:16.999Z,23.16
2022-09-12T13:31:21.376Z,23.04
2022-09-12T13:33:54.734Z,23.40
2022-09-12T13:37:08.532Z,23.29
2022-09-12T13:40:00.387Z,23.28
2022-09-12T13:42:42.746Z,23.30
2022-09-12T13:45:24.825Z,23.23
2022-09-12T13:48:03.233Z,23.30
2022-09-12T13:50:41.651Z,23.28
2022-09-12T13:53:16.204Z,23.22
2022-09-12T13:55:58.111Z,23.18
2022-09-12T13:58:28.792Z,23.32
2022-09-12T14:01:10.936Z,23.36
2022-09-12T14:04:08.035Z,23.40
2022-09-12T14:06:53.198Z,23.36
2022-09-12T14:09:28.709Z,23.47
2022-09-12T14:11:56.584Z,23.51
2022-09-12T14:14:37.734Z,23.49
2022-09-12T14:17:23.468Z,23.48
2022-09-12T14:19:52.707Z,23.67
2022-09-12T14:22:19.755Z,23.75
2022-09-12T14:24:51.544Z,23.75
2022-09-12T14:27:26.724Z,23.90
2022-09-12T14:30:08.935Z,23.87
2022-09-12T14:32:36.215Z,24.26
2022-09-12T14:35:12.057Z,24.25
2022-09-12T14:37:39.780Z,24.11
2022-09-12T14:40:27.090Z,24.04
2022-09-12T14:42:56.987Z,24.00
2022-09-12T14:45:31.247Z,24.07
2022-09-12T14:47:59.051Z,23.98
2022-09-12T14:50:32.892Z,23.81
2022-09-12T14:53:17.489Z,23.91
2022-09-12T14:56:07.703Z,23.79
2022-09-12T14:58:34.706Z,23.89
2022-09-12T15:01:21.278Z,23.89
2022-09-12T15:03:49.983Z,23.90
2022-09-12T15:06:32.968Z,23.72
2022-09-12T15:09:06.259Z,23.91
2022-09-12T15:11:33.827Z,23.81
2022-09-12T15:14:13.172Z,23.90
2022-09-12T15:16:40.009Z,23.82
2022-09-12T15:19:06.789Z,23.79
2022-09-12T15:21:33.782Z,23.89
2022-09-12T15:24:00.603Z,23.85
2022-09-12T15:26:31.640Z,23.92
2022-09-12T15:28:58.484Z,23.85
2022-09-12T15:31:31.498Z,23.94
2022-09-12T15:34:01.183Z,23.93
2022-09-12T15:36:28.950Z,24.05
2022-09-12T15:38:56.010Z,24.11
2022-09-12T15:41:29.940Z,24.48
2022-09-12T15:43:57.175Z,24.41
2022-09-12T15:46:24.074Z,24.54
2022-09-12T15:48:50.977Z,24.55
2022-09-12T15:51:21.046Z,24.60
2022-09-12T15:53:50.202Z,24.74
2022-09-12T15:56:19.661Z,24.75
2022-09-12T15:58:58.095Z,24.84
2022-09-12T16:01:25.653Z,24.79
2022-09-12T16:03:52.508Z,24.77
2022-09-12T16:06:19.307Z,24.69
2022-09-12T16:08:46.196Z,24.83
2022-09-12T16:11:24.123Z,28.18
2022-09-12T16:13:53.694Z,26.95
2022-09-12T16:16:20.840Z,26.11
2022-09-12T16:18:47.803Z,25.93
2022-09-12T16:21:15.681Z,25.57
2022-09-12T16:23:47.313Z,25.47
2022-09-12T16:26:14.785Z,25.31
2022-09-12T16:28:41.776Z,25.13
2022-09-12T16:31:12.067Z,25.07
2022-09-12T16:33:39.896Z,24.97
2022-09-12T16:36:13.962Z,24.85
2022-09-12T16:38:52.841Z,24.86
2022-09-12T16:41:22.424Z,25.03
2022-09-12T16:43:49.254Z,24.76
2022-09-12T16:46:19.514Z,24.78
2022-09-12T16:48:52.347Z,24.90
2022-09-12T16:51:25.958Z,24.77
2022-09-12T16:53:54.413Z,24.75
2022-09-12T16:56:22.302Z,24.57
2022-09-12T16:58:49.360Z,24.42
2022-09-12T17:01:23.326Z,24.37
2022-09-12T17:03:58.247Z,24.25
2022-09-12T17:06:26.390Z,24.22
2022-09-12T17:08:55.571Z,24.14
2022-09-12T17:11:26.818Z,24.08
2022-09-12T17:14:11.399Z,23.93
2022-09-12T17:16:42.167Z,23.75
2022-09-12T17:19:26.491Z,23.68
2022-09-12T17:21:53.992Z,23.66
2022-09-12T17:24:21.382Z,23.48
2022-09-12T17:26:48.260Z,23.47
2022-09-12T17:29:16.586Z,23.48
2022-09-12T17:31:45.347Z,23.32
2022-09-12T17:34:14.410Z,23.32
2022-09-12T17:36:44.482Z,23.24
2022-09-12T17:39:13.543Z,23.16
2022-09-12T17:41:43.002Z,22.89
2022-09-12T17:44:13.755Z,23.01
2022-09-12T17:46:42.093Z,22.96
2022-09-12T17:49:16.087Z,22.84
2022-09-12T17:51:43.882Z,22.72
2022-09-12T17:54:16.071Z,22.61
2022-09-12T17:56:45.858Z,22.48
2022-09-12T17:59:16.995Z,22.42
2022-09-12T18:02:03.849Z,22.34
2022-09-12T18:04:31.103Z,22.14
2022-09-12T18:07:00.221Z,22.03
2022-09-12T18:09:28.093Z,22.02
2022-09-12T18:11:55.287Z,21.96
2022-09-12T18:14:22.402Z,21.83
2022-09-12T18:16:49.927Z,21.84
2022-09-12T18:19:16.968Z,21.72
2022-09-12T18:21:43.956Z,21.52
2022-09-12T18:24:11.471Z,21.54
2022-09-12T18:26:38.515Z,21.40
2022-09-12T18:29:05.594Z,21.50
2022-09-12T18:31:32.488Z,21.41
2022-09-12T18:34:00.349Z,21.25
2022-09-12T18:36:28.039Z,21.26
2022-09-12T18:38:57.072Z,21.11
2022-09-12T18:41:24.894Z,20.91
2022-09-12T18:43:59.890Z,20.91
2022-09-12T18:46:29.227Z,21.00
2022-09-12T18:48:59.801Z,20.97
2022-09-12T18:51:34.610Z,20.87
2022-09-12T18:54:07.905Z,20.85
2022-09-12T18:56:39.371Z,20.79
2022-09-12T18:59:07.253Z,20.79
2022-09-12T19:01:38.964Z,20.60
2022-09-12T19:04:08.096Z,20.68
2022-09-12T19:06:39.048Z,20.60
2022-09-12T19:09:08.328Z,20.55
2022-09-12T19:11:38.115Z,20.51
2022-09-12T19:14:05.989Z,20.49
2022-09-12T19:16:33.262Z,20.49
2022-09-12T19:19:00.559Z,20.32
2022-09-12T19:21:31.579Z,20.27
2022-09-12T19:24:03.637Z,20.32
2022-09-12T19:26:30.661Z,20.19
2022-09-12T19:28:57.772Z,20.16
2022-09-12T19:31:25.625Z,20.13
2022-09-12T19:33:52.807Z,20.11
2022-09-12T19:36:43.698Z,20.13
2022-09-12T19:39:09.524Z,20.02
2022-09-12T19:41:36.890Z,19.93
2022-09-12T19:44:04.886Z,19.88
2022-09-12T19:46:31.838Z,19.83
2022-09-12T19:48:58.843Z,19.82
2022-09-12T19:51:25.756Z,19.53
2022-09-12T19:53:53.162Z,19.55
2022-09-12T19:56:20.456Z,19.60
2022-09-12T19:58:53.479Z,19.52
2022-09-12T20:01:28.361Z,19.46
2022-09-12T20:03:56.752Z,19.41
2022-09-12T20:06:23.787Z,19.48
2022-09-12T20:08:50.596Z,19.25
2022-09-12T20:11:20.086Z,19.37
2022-09-12T20:13:47.614Z,19.32
2022-09-12T20:16:28.896Z,19.15
2022-09-12T20:19:06.969Z,19.14
2022-09-12T20:21:35.970Z,19.11
2022-09-12T20:24:15.703Z,19.05
2022-09-12T20:26:42.937Z,19.02
2022-09-12T20:29:10.639Z,18.96
2022-09-12T20:31:40.601Z,18.79
2022-09-12T20:34:08.340Z,18.93
2022-09-12T20:36:35.163Z,18.87
2022-09-12T20:39:02.444Z,18.88
2022-09-12T20:41:33.946Z,18.93
2022-09-12T20:44:00.847Z,18.90
2022-09-12T20:46:28.798Z,18.85
2022-09-12T20:48:56.294Z,18.72
2022-09-12T20:51:24.538Z,18.80
2022-09-12T20:53:59.075Z,18.78
2022-09-12T20:56:27.719Z,18.66
2022-09-12T20:58:55.739Z,18.68
2022-09-12T21:01:23.133Z,18.61
2022-09-12T21:03:50.734Z,18.64
2022-09-12T21:06:18.564Z,18.48
2022-09-12T21:08:47.503Z,18.50
2022-09-12T21:11:15.239Z,18.47
2022-09-12T21:13:42.139Z,18.47
2022-09-12T21:16:16.137Z,18.44
2022-09-12T21:18:43.592Z,18.29
2022-09-12T21:21:13.398Z,18.37
2022-09-12T21:23:41.247Z,18.29
2022-09-12T21:26:08.651Z,18.25
2022-09-12T21:28:35.471Z,18.25
2022-09-12T21:31:03.050Z,18.23
2022-09-12T21:33:29.999Z,18.30
2022-09-12T21:36:03.502Z,18.26
2022-09-12T21:38:30.979Z,18.24
2022-09-12T21:41:24.164Z,18.24
2022-09-12T21:43:51.290Z,18.05
2022-09-12T21:46:18.561Z,18.12
2022-09-12T21:48:45.399Z,18.16
2022-09-12T21:51:12.259Z,18.15
2022-09-12T21:53:39.071Z,18.04
2022-09-12T21:56:08.464Z,17.88
2022-09-12T21:58:36.680Z,17.90
2022-09-12T22:01:05.742Z,17.89
2022-09-12T22:03:32.747Z,17.72
2022-09-12T22:06:05.478Z,17.83
2022-09-12T22:08:34.560Z,17.63
2022-09-12T22:11:05.572Z,17.61
2022-09-12T22:13:32.520Z,17.52
2022-09-12T22:16:01.041Z,17.55
2022-09-12T22:18:27.941Z,17.54
2022-09-12T22:21:04.857Z,17.56
2022-09-12T22:23:50.267Z,17.56
2022-09-12T22:26:17.402Z,17.53
2022-09-12T22:28:44.947Z,17.49
2022-09-12T22:31:13.370Z,17.51
2022-09-12T22:33:40.736Z,17.59
2022-09-12T22:36:08.293Z,17.54
2022-09-12T22:38:35.404Z,17.42
2022-09-12T22:41:09.145Z,17.38
2022-09-12T22:43:36.435Z,17.33
2022-09-12T22:46:10.800Z,17.25
2022-09-12T22:48:38.107Z,17.36
2022-09-12T22:51:05.561Z,17.32
2022-09-12T22:53:33.305Z,17.29
2022-09-12T22:56:00.532Z,17.26
2022-09-12T22:58:27.867Z,17.25
2022-09-12T23:00:54.929Z,17.25
2022-09-12T23:03:22.055Z,17.14
2022-09-12T23:05:49.196Z,17.21
2022-09-12T23:08:17.748Z,17.17
2022-09-12T23:10:44.565Z,17.17
2022-09-12T23:13:11.713Z,17.12
2022-09-12T23:15:38.560Z,17.08
2022-09-12T23:18:05.424Z,17.09
2022-09-12T23:20:32.610Z,16.93
2022-09-12T23:22:59.426Z,16.96
2022-09-12T23:25:26.330Z,17.05
2022-09-12T23:27:53.953Z,16.98
2022-09-12T23:30:21.613Z,16.98
2022-09-12T23:32:49.257Z,16.80
2022-09-12T23:35:19.626Z,16.90
2022-09-12T23:37:47.453Z,16.68
2022-09-12T23:40:14.573Z,16.61
2022-09-12T23:42:41.466Z,16.65
2022-09-12T23:45:10.001Z,16.71
2022-09-12T23:47:36.820Z,16.61
2022-09-12T23:50:04.207Z,16.55
2022-09-12T23:52:31.004Z,16.56
2022-09-12T23:54:57.781Z,16.51
2022-09-12T23:57:24.576Z,16.51
2022-09-12T23:59:51.354Z,16.43
